Kapetan Minas — SV9615 — position and weather

sailwx.info

Track history (hours):
 
Tides and Currents Weather Stations Pressure Air Temp Water Temp Dewpoint Dewpoint Depression Visibility Wind Speed Wind Dir Waves Ship Positions

Kapetan Minas

Last reported at 2017-Dec-14 08:21 UTC. Time now 2017-Dec-17 02:18 UTC.
Position N 40°52' E 024°42'.

Length 23 m; draft 2.2 m.

Type: Fishing. MMSI: 239058000.

Date/timePositionNaut miles runAvg speedWind from/ knotsBaromVisibWave heightAir tempDewpointWater temp
2017-Dec-14 08:21N 40°52' E 024°42'0 0.0
2017-Dec-14 07:57N 40°52' E 024°42'0 0.0
2017-Dec-14 07:27N 40°52' E 024°42'0 0.0
2017-Dec-14 07:00N 40°52' E 024°42'0 0.3
2017-Dec-14 06:25N 40°52' E 024°42'0 0.0
2017-Dec-14 05:52N 40°52' E 024°42'0 0.0
2017-Dec-14 05:25N 40°52' E 024°42'1 3.4
2017-Dec-14 05:00N 40°51' E 024°40'4 9.0
2017-Dec-14 04:30N 40°49' E 024°35'5 9.0
2017-Dec-14 04:00N 40°46' E 024°31'5 9.6
2017-Dec-14 03:30N 40°41' E 024°29'5 9.6
2017-Dec-14 03:00N 40°36' E 024°29'5 9.6
2017-Dec-14 02:29N 40°31' E 024°27'5 9.3
2017-Dec-14 01:59N 40°27' E 024°27'5 9.3
2017-Dec-14 01:28N 40°22' E 024°26'4 9.3
2017-Dec-14 01:00N 40°18' E 024°26'5 9.5
2017-Dec-14 00:30N 40°13' E 024°25'11 8.1
2017-Dec-13 23:09N 40°06' E 024°14'2 9.4
2017-Dec-13 22:57N 40°06' E 024°12'4 9.6
2017-Dec-13 22:30N 40°06' E 024°06'  
Track history (hours):
 
Tides and Currents Weather Stations Pressure Air Temp Water Temp Dewpoint Dewpoint Depression Visibility Wind Speed Wind Dir Waves Ship Positions

Kapetan Minas

Last reported at 2017-Dec-14 08:21 UTC. Time now 2017-Dec-17 02:18 UTC.
Position N 40°52' E 024°42'.

Length 23 m; draft 2.2 m.

Type: Fishing. MMSI: 239058000.

Date/timePositionNaut miles runAvg speedWind from/ knotsBaromVisibWave heightAir tempDewpointWater temp
2017-Dec-14 08:21N 40°52' E 024°42'0 0.0
2017-Dec-14 07:57N 40°52' E 024°42'0 0.0
2017-Dec-14 07:27N 40°52' E 024°42'0 0.0
2017-Dec-14 07:00N 40°52' E 024°42'0 0.3
2017-Dec-14 06:25N 40°52' E 024°42'0 0.0
2017-Dec-14 05:52N 40°52' E 024°42'0 0.0
2017-Dec-14 05:25N 40°52' E 024°42'1 3.4
2017-Dec-14 05:00N 40°51' E 024°40'4 9.0
2017-Dec-14 04:30N 40°49' E 024°35'5 9.0
2017-Dec-14 04:00N 40°46' E 024°31'5 9.6
2017-Dec-14 03:30N 40°41' E 024°29'5 9.6
2017-Dec-14 03:00N 40°36' E 024°29'5 9.6
2017-Dec-14 02:29N 40°31' E 024°27'5 9.3
2017-Dec-14 01:59N 40°27' E 024°27'5 9.3
2017-Dec-14 01:28N 40°22' E 024°26'4 9.3
2017-Dec-14 01:00N 40°18' E 024°26'5 9.5
2017-Dec-14 00:30N 40°13' E 024°25'11 8.1
2017-Dec-13 23:09N 40°06' E 024°14'2 9.4
2017-Dec-13 22:57N 40°06' E 024°12'4 9.6
2017-Dec-13 22:30N 40°06' E 024°06'  

Dump ship's entire track history